Terminal Aerodrome Forecast
Issued by NWS

Home | Current Version | Previous Version | Text Only | Print | Product List | Glossary Off
Versions: 1 2 3 4 5 6 7 8 9 10 11 12 13 14 15 16 17 18 19

000
FTUS43 KBIS 261100
TAFDIK
TAF
KDIK 261127Z 2612/2712 35005KT P6SM BKN007 OVC012
      TEMPO 2612/2616 2SM -SN BR
     FM261600 03007KT P6SM -SN OVC012
     FM261900 05007KT P6SM BKN025
     FM270000 10010KT 6SM -SN BR OVC010
     FM270600 15009KT 6SM -SN BR OVC008=

USA.gov is the U.S. government's official web portal to all federal, state and local government web resources and services.